| 3/17/2026 | Rockefeller Capital Management L.P. | 10,795 | $462K | 0.0% | +3.4% | 0.006% | |
| 3/9/2026 | Corient Private Wealth LLC | 25,418 | $1.09M | 0.0% | -2.9% | 0.014% | |
| 3/6/2026 | Hsbc Holdings PLC | 220,628 | $9.46M | 0.0% | +90.6% | 0.121% | |
| 2/24/2026 | Pacer Advisors Inc. | 22,280 | $954K | 0.0% | -33.7% | 0.012% | |
| 2/23/2026 | Virtu Financial LLC | 7,648 | $328K | 0.0% | N/A | 0.004% | |
| 2/19/2026 | T. Rowe Price Investment Management Inc. | 638,531 | $27.36M | 0.0% | -87.4% | 0.350% | |
| 2/19/2026 | TMB Capital Partners LLC | 5,710 | $245K | 0.1% | N/A | 0.003% | |
| 2/19/2026 | Invesco Ltd. | 554,385 | $23.75M | 0.0% | -9.5% | 0.304% | |
| 2/19/2026 | Corient Private Wealth LLC | 25,418 | $1.09M | 0.0% | -2.9% | 0.014% | |
| 2/19/2026 | Alberta Investment Management Corp | 58,120 | $2.49M | 0.0% | N/A | 0.032% | |
Get the Latest News and Ratings for CADE and Related Stocks Enter your email address below to receive the latest news and analysts' ratings for Cadence Bank and its competitors with MarketBeat's FREE daily newsletter.
|
| 2/18/2026 | Mercer Global Advisors Inc. ADV | 14,544 | $623K | 0.0% | +23.2% | 0.008% | |
| 2/18/2026 | Beacon Pointe Advisors LLC | 16,010 | $686K | 0.0% | -2.0% | 0.009% | |
| 2/18/2026 | State of Tennessee Department of Treasury | 71,625 | $3.02M | 0.0% | -4.1% | 0.039% | |
| 2/18/2026 | Mackenzie Financial Corp | 11,703 | $504K | 0.0% | -95.3% | 0.006% | |
| 2/18/2026 | Fuller & Thaler Asset Management Inc. | 2,664,785 | $114.16M | 0.4% | -26.3% | 1.462% | |
| 2/18/2026 | NewEdge Advisors LLC | 8,710 | $373K | 0.0% | +3,384.0% | 0.005% | |
| 2/18/2026 | XTX Topco Ltd | 61,042 | $2.62M | 0.1% | +207.8% | 0.033% | |
| 2/18/2026 | Water Island Capital LLC | 297,603 | $12.75M | 1.4% | N/A | 0.163% | |
| 2/18/2026 | Wellington Management Group LLP | 6,173,767 | $264.48M | 0.1% | -54.2% | 3.388% | |
| 2/18/2026 | SummitTX Capital L.P. | 139,317 | $5.97M | 0.2% | N/A | 0.076% | |
| 2/18/2026 | Toronto Dominion Bank | 1,688,900 | $72.35M | 0.1% | N/A | 0.927% | |
| 2/18/2026 | Tudor Investment Corp ET AL | 214,835 | $9.20M | 0.0% | N/A | 0.118% | |
| 2/18/2026 | Silvercrest Asset Management Group LLC | 1,944,531 | $83.30M | 0.6% | -51.1% | 1.067% | |
| 2/18/2026 | Oxford Asset Management LLP | 16,774 | $719K | 0.3% | N/A | 0.009% | |
| 2/18/2026 | Millennium Management LLC | 1,472,333 | $63.08M | 0.0% | +136.3% | 0.808% | |
| 2/18/2026 | Interval Partners LP | 430,330 | $18.44M | 0.3% | +416.8% | 0.236% | |
| 2/18/2026 | Engineers Gate Manager LP | 17,516 | $750K | 0.0% | N/A | 0.010% | |
| 2/18/2026 | Balyasny Asset Management L.P. | 3,675,033 | $157.44M | 0.2% | +1,481.7% | 2.017% | |
| 2/18/2026 | Bridgeway Capital Management LLC | 50,833 | $2.18M | 0.0% | -51.6% | 0.028% | |
| 2/17/2026 | Freestone Grove Partners LP | 311,017 | $13.32M | 0.1% | -18.0% | 0.171% | |
| 2/17/2026 | Guggenheim Capital LLC | 5,783 | $248K | 0.0% | -14.6% | 0.003% | |
| 2/17/2026 | AQR Arbitrage LLC | 2,179,665 | $93.38M | 2.0% | N/A | 1.196% | |
| 2/17/2026 | Schonfeld Strategic Advisors LLC | 55,675 | $2.39M | 0.0% | +313.0% | 0.031% | |
| 2/17/2026 | Polar Asset Management Partners Inc. | 983,756 | $42.14M | 0.5% | +10,672.6% | 0.540% | |
| 2/17/2026 | AQR Capital Management LLC | 483,757 | $20.72M | 0.0% | -50.5% | 0.265% | |
| 2/17/2026 | Abel Hall LLC | 13,298 | $570K | 0.1% | +75.5% | 0.007% | |
| 2/17/2026 | Cetera Investment Advisers | 13,394 | $574K | 0.0% | +2.3% | 0.007% | |
| 2/17/2026 | Pentwater Capital Management LP | 6,230,000 | $266.89M | 1.4% | N/A | 3.419% | |
| 2/17/2026 | Sagefield Capital LP | 578,203 | $24.77M | 2.1% | N/A | 0.317% | |
| 2/17/2026 | PenderFund Capital Management Ltd. | 7,975 | $342K | 0.1% | N/A | 0.004% | |
|
| 2/17/2026 | Amundi | 10,031 | $430K | 0.0% | N/A | 0.006% | |
| 2/17/2026 | Price T Rowe Associates Inc. MD | 173,189 | $7.42M | 0.0% | +3.3% | 0.095% | |
| 2/17/2026 | T. Rowe Price Investment Management Inc. | 575,152 | $24.64M | 0.0% | -88.7% | 0.316% | |
| 2/17/2026 | Weiss Asset Management LP | 135,082 | $5.79M | 0.1% | N/A | 0.074% | |
| 2/17/2026 | California State Teachers Retirement System | 173,710 | $7.44M | 0.0% | +0.7% | 0.095% | |
| 2/17/2026 | Russell Investments Group Ltd. | 141,878 | $6.08M | 0.0% | -32.1% | 0.078% | |
| 2/17/2026 | State of Wisconsin Investment Board | 10,098 | $433K | 0.0% | -97.5% | 0.006% | |
| 2/17/2026 | Captrust Financial Advisors | 15,928 | $682K | 0.0% | -16.4% | 0.009% | |
| 2/17/2026 | Royal Bank of Canada | 111,809 | $4.79M | 0.0% | -2.1% | 0.061% | |
| 2/17/2026 | Magnetar Financial LLC | 68,305 | $2.93M | 0.0% | N/A | 0.037% | |
| 2/17/2026 | Alberta Investment Management Corp | 58,120 | $2.49M | 0.0% | N/A | 0.032% | |
| 2/17/2026 | Maltese Capital Management LLC | 49,750 | $2.13M | 0.4% | +65.8% | 0.027% | |
| 2/16/2026 | Squarepoint Ops LLC | 75,113 | $3.22M | 0.0% | N/A | 0.041% | |
| 2/16/2026 | Slotnik Capital LLC | 150,000 | $6.43M | 1.5% | N/A | 0.082% | |
| 2/16/2026 | Vanguard Personalized Indexing Management LLC | 25,135 | $1.08M | 0.0% | +5.5% | 0.014% | |
| 2/16/2026 | Verition Fund Management LLC | 190,079 | $8.14M | 0.0% | -6.3% | 0.104% | |
| 2/16/2026 | MML Investors Services LLC | 8,574 | $367K | 0.0% | +4.2% | 0.005% | |
| 2/16/2026 | Mariner LLC | 7,463 | $320K | 0.0% | N/A | 0.004% | |
| 2/16/2026 | NFJ Investment Group LLC | 634,326 | $27.18M | 1.0% | +0.4% | 0.348% | |
| 2/16/2026 | Healthcare of Ontario Pension Plan Trust Fund | 813,391 | $34.85M | 0.1% | +2,292.3% | 0.446% | |
| 2/16/2026 | Kennedy Capital Management LLC | 391,355 | $16.77M | 0.4% | +66.3% | 0.215% | |
| 2/16/2026 | Barclays PLC | 471,326 | $20.19M | 0.0% | +3.5% | 0.259% | |
| 2/16/2026 | Aigen Investment Management LP | 9,067 | $388K | 0.1% | N/A | 0.005% | |
| 2/13/2026 | Kestra Advisory Services LLC | 7,356 | $315K | 0.0% | -5.0% | 0.004% | |
| 2/13/2026 | FORA Capital LLC | 20,750 | $889K | 0.1% | N/A | 0.011% | |
| 2/13/2026 | Westchester Capital Management LLC | 328,564 | $14.08M | 0.6% | N/A | 0.180% | |
| 2/13/2026 | Parkside Financial Bank & Trust | 2,250 | $96K | 0.0% | +28.7% | 0.001% | |
| 2/13/2026 | Marshall Wace LLP | 124,991 | $5.36M | 0.0% | N/A | 0.069% | |
| 2/13/2026 | The Manufacturers Life Insurance Company | 441,493 | $18.91M | 0.0% | -4.3% | 0.242% | |
| 2/13/2026 | Johnson Investment Counsel Inc. | 6,688 | $287K | 0.0% | -8.6% | 0.004% | |
| 2/13/2026 | Soros Fund Management LLC | 597,348 | $25.59M | 0.3% | N/A | 0.328% | |
| 2/13/2026 | Segall Bryant & Hamill LLC | 1,012,339 | $43.37M | 0.6% | -25.0% | 0.556% | |
| 2/13/2026 | Bridgewater Associates LP | 436,720 | $18.71M | 0.1% | +1.6% | 0.240% | |
| 2/13/2026 | UMB Bank n.a. | 1,831 | $78K | 0.0% | +24.8% | 0.001% | |
| 2/13/2026 | Stifel Financial Corp | 26,625 | $1.14M | 0.0% | +11.6% | 0.015% | |
| 2/13/2026 | Quarry LP | 73,115 | $3.13M | 0.6% | N/A | 0.040% | |
| 2/13/2026 | Neuberger Berman Group LLC | 927,202 | $39.72M | 0.0% | +4,717.9% | 0.509% | |
| 2/13/2026 | Smartleaf Asset Management LLC | 1,207 | $52K | 0.0% | +69.0% | 0.001% | |
| 2/13/2026 | Glazer Capital LLC | 1,959,734 | $83.96M | 2.2% | N/A | 1.075% | |
| 2/13/2026 | First Trust Capital Management L.P. | 2,112,573 | $90.50M | 5.4% | N/A | 1.159% | |
| 2/13/2026 | Morgan Stanley | 1,582,463 | $67.79M | 0.0% | +27.4% | 0.868% | |
| 2/13/2026 | Public Sector Pension Investment Board | 100,000 | $4.28M | 0.0% | N/A | 0.055% | |
| 2/13/2026 | Rafferty Asset Management LLC | 195,091 | $8.36M | 0.0% | -32.5% | 0.107% | |
| 2/13/2026 | First Trust Advisors LP | 2,171,915 | $93.05M | 0.1% | -17.2% | 1.192% | |
| 2/13/2026 | Charles Schwab Investment Management Inc. | 2,125,473 | $91.06M | 0.0% | -1.9% | 1.166% | |
| 2/13/2026 | Carmignac Gestion | 70,869 | $3.04M | 0.0% | N/A | 0.039% | |
| 2/13/2026 | Police & Firemen s Retirement System of New Jersey | 50,433 | $2.16M | 0.0% | +2.0% | 0.028% | |
| 2/13/2026 | State Street Corp | 8,839,696 | $381.22M | 0.0% | -5.8% | 4.851% | |
| 2/13/2026 | Boston Partners | 845,976 | $36.29M | 0.0% | +21.4% | 0.464% | |
| 2/13/2026 | UBS AM a distinct business unit of UBS ASSET MANAGEMENT AMERICAS LLC | 382,691 | $16.39M | 0.0% | -6.4% | 0.210% | |
|
| 2/13/2026 | Wells Fargo & Company MN | 216,754 | $9.29M | 0.0% | +44.1% | 0.119% | |
| 2/12/2026 | CI Investments Inc. | 8,199 | $351K | 0.0% | +359.1% | 0.004% | |
| 2/12/2026 | Fiduciary Group LLC | 20,735 | $888K | 0.1% | +13.0% | 0.011% | |
| 2/12/2026 | Jane Street Group LLC | 22,679 | $972K | 0.0% | -44.9% | 0.012% | |
| 2/12/2026 | DRW Securities LLC | 22,507 | $964K | 0.0% | -61.3% | 0.012% | |
| 2/12/2026 | Orion Porfolio Solutions LLC | 12,076 | $517K | 0.0% | -12.8% | 0.007% | |
| 2/12/2026 | MetLife Investment Management LLC | 190,755 | $8.17M | 0.0% | -5.2% | 0.105% | |
| 2/12/2026 | Cibc World Markets Corp | 12,360 | $530K | 0.0% | N/A | 0.007% | |
| 2/12/2026 | Commonwealth Equity Services LLC | 12,577 | $539K | 0.0% | +110.5% | 0.007% | |
| 2/12/2026 | Dimensional Fund Advisors LP | 9,847,224 | $421.86M | 0.1% | +0.1% | 5.404% | |